Comodoro Rivadavia, Argentina

4:52 AM ART on September 23, 2014 (GMT -0300)
GEN. Enrique Mosconi International | Change Station
CLOSE
Current Station
Airport
Location: Comodoro Rivadavia,
Elevation: 151 ft
Nearby Weather Stations

Elev 151 ft 45.78 °S, 67.50 °W | Updated 52 minutes ago

Clear
Clear
54 °F
Feels Like 54 °F
N
20
Wind Variable Wind from NW
Gusts 31 mph

Today
High -- | Low -- °F
--% Chance of Precip.
Yesterday
High -- | Low -- °F
Precip. -- in
7:17 AM 7:28 PM
Waning Crescent, 1% visible
Pressure 29.56 in
Visibility -9999.0 miles
Clouds
Dew Point 27 °F
Humidity 35%
Rainfall 0.00 in
Snow Depth Not available.
UV Not available.
Pollen Not available.
Air Quality Not available.
Flu Activity Not available.
METAR SAVC 230700Z 32017G27KT CAVOK 12/M03 Q1001

More Conditions Fewer Conditions

Pressure 29.56 in
Visibility -9999.0 miles
Clouds
Dew Point 27 °F
Humidity 35%
Rainfall 0.00 in
Snow Depth Not available.
UV Not available.
Pollen Not available.
Air Quality Not available.
Flu Activity Not available.
METAR SAVC 230700Z 32017G27KT CAVOK 12/M03 Q1001

More Conditions Fewer Conditions

10-Day Weather Forecast

Almanac

Astronomy

Sep. 23, 2014 Rise Set
Actual Time 7:17 AM ART 7:28 PM ART
Civil Twilight 6:47 AM ART 7:58 PM ART
Nautical Twilight 6:12 AM ART 8:33 PM ART
Astronomical Twilight 5:36 AM ART 9:09 PM ART
Moon 6:49 AM ART 7:07 PM ART
Length of Visible Light 13h 10m
Length of Day
12h 11m
Tomorrow will be 3m 12s longer.
Waning Crescent, 1% of the Moon is Illuminated
Today
Waning Crescent
Sep 24
New
Oct 1
First Quarter
Oct 8
Full
Oct 15
Last Quarter

Yesterday's Extremes

Country Highs Country Lows

Community

WunderPhotos

Upload Photos

1,755,608 photos uploaded!

Nearby

Snow Depth

Not available.

Earthquake Activity

City Distance Mag. Time & Date
No recent earthquake activity has been reported nearby.
Minimum magnitude displayed is 2.5.

Coastal Water Temperatures

Place Temperature
No Stations Reporting

Nearby Weather Stations